createdAt,value
2019-01-15T00:02:19.253Z,5.40
2019-01-15T00:12:22.829Z,5.40
2019-01-15T00:22:26.397Z,5.30
2019-01-15T00:32:29.973Z,5.30
2019-01-15T00:42:33.621Z,5.20
2019-01-15T00:52:37.190Z,5.10
2019-01-15T01:02:40.770Z,5.20
2019-01-15T01:12:44.366Z,5.20
2019-01-15T01:22:47.937Z,5.20
2019-01-15T01:32:51.543Z,5.10
2019-01-15T01:42:55.129Z,5.10
2019-01-15T01:52:58.702Z,5.10
2019-01-15T02:03:02.283Z,5.20
2019-01-15T02:13:05.841Z,5.10
2019-01-15T02:23:09.393Z,5.00
2019-01-15T02:33:13.006Z,4.90
2019-01-15T02:43:16.574Z,4.90
2019-01-15T02:53:20.168Z,4.80
2019-01-15T03:03:23.765Z,4.90
2019-01-15T03:13:27.342Z,5.00
2019-01-15T03:23:30.942Z,5.20
2019-01-15T03:33:34.627Z,5.10
2019-01-15T03:43:38.200Z,5.10
2019-01-15T03:53:41.810Z,5.00
2019-01-15T04:03:45.493Z,4.90
2019-01-15T04:13:49.092Z,4.80
2019-01-15T04:23:52.742Z,4.70
2019-01-15T04:33:56.318Z,4.70
2019-01-15T04:43:59.911Z,4.80
2019-01-15T04:54:03.763Z,4.90
2019-01-15T05:04:07.407Z,5.10
2019-01-15T05:14:10.979Z,5.20
2019-01-15T05:24:14.570Z,4.90
2019-01-15T05:34:18.152Z,4.60
2019-01-15T05:44:21.756Z,4.50
2019-01-15T05:54:25.373Z,4.40
2019-01-15T06:04:28.971Z,4.30
2019-01-15T06:14:32.585Z,4.30
2019-01-15T06:24:36.160Z,4.30
2019-01-15T06:34:39.730Z,4.30
2019-01-15T06:44:43.327Z,4.40
2019-01-15T06:54:46.943Z,4.60
2019-01-15T07:04:50.528Z,4.70
2019-01-15T07:14:54.114Z,4.70
2019-01-15T07:24:57.693Z,4.70
2019-01-15T07:35:01.271Z,4.80
2019-01-15T07:45:06.178Z,5.30
2019-01-15T07:55:10.395Z,5.40
2019-01-15T08:05:14.902Z,5.60
2019-01-15T08:15:20.405Z,5.50
2019-01-15T08:25:23.981Z,5.60
2019-01-15T08:35:27.568Z,5.70
2019-01-15T08:45:31.133Z,5.80
2019-01-15T08:55:34.702Z,6.00
2019-01-15T09:05:38.286Z,6.00
2019-01-15T09:15:41.853Z,5.90
2019-01-15T09:25:45.433Z,5.90
2019-01-15T09:35:49.527Z,6.10
2019-01-15T09:45:53.297Z,6.20
2019-01-15T09:55:56.864Z,6.20
2019-01-15T10:06:00.447Z,6.30
2019-01-15T10:16:04.042Z,6.40
2019-01-15T10:26:07.610Z,6.40
2019-01-15T10:36:10.067Z,6.50
2019-01-15T10:46:13.637Z,6.60
2019-01-15T10:56:17.207Z,6.70
2019-01-15T11:06:20.817Z,6.80
2019-01-15T11:16:24.390Z,6.90
2019-01-15T11:26:27.975Z,6.90
2019-01-15T11:36:31.555Z,6.90
2019-01-15T11:46:35.126Z,7.00
2019-01-15T11:56:38.750Z,7.10
2019-01-15T12:07:04.219Z,7.10
2019-01-15T12:17:26.890Z,7.10
2019-01-15T12:27:55.370Z,7.20
2019-01-15T12:38:20.909Z,7.20
2019-01-15T12:48:55.950Z,7.20
2019-01-15T12:59:24.497Z,7.20
2019-01-15T13:09:50.618Z,7.20
2019-01-15T13:20:05.366Z,7.30
2019-01-15T13:30:45.806Z,7.30
2019-01-15T13:41:02.404Z,7.40
2019-01-15T13:51:46.721Z,7.50
2019-01-15T14:02:15.258Z,7.50
2019-01-15T14:12:29.942Z,7.50
2019-01-15T14:22:55.106Z,7.50
2019-01-15T14:33:13.181Z,7.60
2019-01-15T14:43:41.782Z,7.60
2019-01-15T14:53:59.910Z,7.60
2019-01-15T15:04:18.729Z,7.60
2019-01-15T15:14:48.475Z,7.60
2019-01-15T15:25:11.160Z,7.50
2019-01-15T15:35:47.546Z,7.50
2019-01-15T15:46:22.398Z,7.60
2019-01-15T15:56:43.790Z,7.50
2019-01-15T16:07:05.420Z,7.50
2019-01-15T16:17:28.090Z,7.60
2019-01-15T16:27:51.110Z,7.60
2019-01-15T16:38:12.958Z,7.70
2019-01-15T16:48:35.282Z,7.90
2019-01-15T16:58:49.055Z,7.80
2019-01-15T17:09:10.430Z,7.80
2019-01-15T17:19:30.466Z,7.90
2019-01-15T17:29:53.166Z,8.00
2019-01-15T17:40:15.838Z,8.10
2019-01-15T17:50:45.722Z,8.10
2019-01-15T18:01:14.575Z,8.00
2019-01-15T18:11:44.018Z,8.10
2019-01-15T18:21:57.426Z,8.00
2019-01-15T18:32:24.903Z,8.00
2019-01-15T18:42:50.493Z,8.00
2019-01-15T18:53:03.950Z,8.00
2019-01-15T19:03:38.459Z,8.00
2019-01-15T19:13:57.937Z,8.00
2019-01-15T19:24:19.427Z,8.10
2019-01-15T19:34:41.346Z,8.00
2019-01-15T19:44:55.481Z,8.00
2019-01-15T19:55:21.178Z,8.00
2019-01-15T20:05:51.505Z,8.00
2019-01-15T20:16:14.183Z,8.00
2019-01-15T20:26:26.170Z,8.00
2019-01-15T20:36:49.270Z,7.90
2019-01-15T20:47:25.548Z,8.00
2019-01-15T20:57:48.438Z,7.90
2019-01-15T21:08:03.826Z,8.00
2019-01-15T21:18:29.789Z,8.00
2019-01-15T21:29:01.499Z,8.00
2019-01-15T21:39:31.873Z,8.10
2019-01-15T21:50:06.946Z,8.10
2019-01-15T22:00:36.406Z,8.10
2019-01-15T22:11:01.902Z,8.10
2019-01-15T22:21:36.686Z,8.10
2019-01-15T22:32:11.466Z,8.10
2019-01-15T22:42:31.674Z,8.20
2019-01-15T22:52:57.370Z,8.10
2019-01-15T23:03:09.187Z,8.00
2019-01-15T23:13:30.757Z,8.10
2019-01-15T23:23:55.909Z,8.10
2019-01-15T23:34:18.586Z,8.00
2019-01-15T23:44:40.232Z,8.00
2019-01-15T23:55:11.999Z,8.00
